Fredonia, NY (14063)

9:13 AM EST on February 20, 2017 (GMT -0500)
East Main Street | | Change Station

Elev 738 ft 42.44 °N, 79.33 °W | Updated 53 seconds ago

Partly Cloudy
Partly Cloudy
33.1 °F
Feels Like 33 °F
N
0.6
Wind Variable Wind from East
Gusts 1.9 mph

Today
High -- | Low -- °F
--% Chance of Precip.
Yesterday
High -- | Low -- °F
Precip. -- in
Pressure 30.35 in
Visibility 10.0 miles
Clouds Clear
Windchill 33 °F
Dew Point 28 °F
Humidity 83%
Rainfall Not available.
Snow Depth Not available.
7:06 AM 5:56 PM
Waning Crescent, 34% visible
METAR KDKK 201353Z AUTO 04004KT 10SM CLR 02/M01 A3033 RMK AO2 SLP277 T00221006
Pressure 30.35 in
Visibility 10.0 miles
Clouds Clear
Windchill 33 °F
Dew Point 28 °F
Humidity 83%
Rainfall Not available.
Snow Depth Not available.
7:06 AM 5:56 PM
Waning Crescent, 34% visible
METAR KDKK 201353Z AUTO 04004KT 10SM CLR 02/M01 A3033 RMK AO2 SLP277 T00221006

Get Your Daily Forecast Email!

Thanks for signing up!

Be on the lookout for a verification email in your inbox.

You'll start receiving the daily forecast at 8 AM.

×

10-Day Weather Forecast

Almanac

Astronomy

Feb. 20, 2017 Rise Set
Actual Time
Civil Twilight
Nautical Twilight
Astronomical Twilight
Moon
Length of Visible Light
Length of Day
Tomorrow will be .
, % of the Moon is Illuminated

Today's Extremes

State Highs State Lows

Community

WunderPhotos

Upload Photos

1,962,540 photos uploaded!

WunderBlog® & News

Nearby

Air Quality

  Air Quality AQ Index Pollutant
Not available.

Snow Depth

Station Depth Elevation

Earthquake Activity

City Distance Mag. Time & Date
Minimum magnitude displayed is 2.5.

Coastal Water Temperatures

Place Temperature

Stations

Nearby Weather Stations

Station Location Temp. Windchill Dew Point Humidity Wind Precip. Elev Updated Type
                   

Watches & Warnings

There are currently no watches in effect.